Viola, TN (37394)

6:05 PM CDT on October 22, 2014 (GMT -0500)
Viola, TN | Change Station
CLOSE
Current Station
Personal Weather Station
Location: Morrison, TN
Elevation: 1053 ft
Nearby Weather Stations
Active Advisory: Frost Advisory

Elev 1053 ft 35.51 °N, 85.89 °W | Updated 29 seconds ago

Clear
Clear
55.6 °F
Feels Like 55.6 °F
N
2.2
Wind Variable Wind from NW
Gusts 5.4 mph

Today
High -- | Low -- °F
--% Chance of Precip.
Yesterday
High -- | Low -- °F
Precip. -- in
6:55 AM 5:59 PM
Waning Crescent, 1% visible
Pressure 30.18 in
Visibility 10.0 miles
Clouds Clear
Dew Point 48 °F
Humidity 76%
Rainfall 0.00 in
Snow Depth Not available.
UV 0 out of 12
Pollen 2.00 out of 12
Air Quality Not available.
Flu Activity Sporadic
METAR KTHA 222255Z AUTO 05004KT 10SM CLR 14/04 A3018 RMK

More Conditions Fewer Conditions

Pressure 30.18 in
Visibility 10.0 miles
Clouds Clear
Dew Point 48 °F
Humidity 76%
Rainfall 0.00 in
Snow Depth Not available.
UV 0 out of 12
Pollen 2.00 out of 12
Air Quality Not available.
Flu Activity Sporadic
METAR KTHA 222255Z AUTO 05004KT 10SM CLR 14/04 A3018 RMK

More Conditions Fewer Conditions

10-Day Weather Forecast

Almanac

Astronomy

Oct. 22, 2014 Rise Set
Actual Time 6:55 AM CDT 5:59 PM CDT
Civil Twilight 6:30 AM CDT 6:25 PM CDT
Nautical Twilight 6:00 AM CDT 6:54 PM CDT
Astronomical Twilight 5:30 AM CDT 7:24 PM CDT
Moon 5:39 AM CDT 5:23 PM CDT
Length of Visible Light 11h 55m
Length of Day
11h 03m
Tomorrow will be 2m 5s shorter.
Waning Crescent, 1% of the Moon is Illuminated
Today
Waning Crescent
Oct 23
New
Oct 30
First Quarter
Nov 6
Full
Nov 14
Last Quarter

Today's Extremes

State Highs State Lows

Community

WunderPhotos

Upload Photos

1,764,071 photos uploaded!

WunderBlogs® & News

Nearby

Snow Depth

Station Depth Elevation
No new snow has been reported.

Earthquake Activity

City Distance Mag. Time & Date
No recent earthquake activity has been reported nearby.
Minimum magnitude displayed is 2.5.

Coastal Water Temperatures

Place Temperature
No Stations Reporting

Nearby Weather Stations